Time;durP1;ratioP1;P1;durP2;ratioP2;P2;SDS_P1;SDS_P2;PMS_P1;PMS_P2;Temp;Humidity;BMP_temperature;BMP_pressure;BME280_temperature;BME280_humidity;BME280_pressure;Samples;Min_cycle;Max_cycle;Signal;HPM_P1;HPM_P2
2022/03/01 00:02:15;;;;;;;4.88;4.45;;;20.90;35.40;;;;;;4993413;28;20161;-57
2022/03/01 00:04:41;;;;;;;4.75;4.38;;;20.90;35.40;;;;;;4994584;28;20175;-59
2022/03/01 00:07:07;;;;;;;5.43;4.80;;;20.80;35.30;;;;;;4992765;28;20081;-58
2022/03/01 00:09:34;;;;;;;6.70;4.72;;;20.80;35.40;;;;;;4988262;28;20050;-60
2022/03/01 00:11:59;;;;;;;5.40;4.90;;;20.80;35.30;;;;;;4993112;28;20811;-57
2022/03/01 00:14:25;;;;;;;5.90;4.75;;;20.80;35.30;;;;;;4980900;28;20034;-57
2022/03/01 00:16:50;;;;;;;4.80;4.40;;;20.80;35.30;;;;;;4993607;28;20050;-58
2022/03/01 00:19:16;;;;;;;5.68;4.88;;;20.80;35.30;;;;;;4995003;28;20433;-57
2022/03/01 00:21:41;;;;;;;5.30;4.80;;;20.80;35.20;;;;;;4997966;28;20050;-58
2022/03/01 00:24:07;;;;;;;5.63;5.10;;;20.70;35.20;;;;;;4994417;28;20584;-57
2022/03/01 00:26:33;;;;;;;5.55;4.50;;;20.70;35.20;;;;;;4997363;28;20081;-56
2022/03/01 00:28:58;;;;;;;4.80;4.22;;;20.70;35.20;;;;;;4993452;28;20648;-58
2022/03/01 00:31:24;;;;;;;4.90;4.43;;;20.70;35.20;;;;;;4996411;28;20045;-57
2022/03/01 00:33:49;;;;;;;6.55;4.95;;;20.70;35.20;;;;;;4995340;28;20068;-57
2022/03/01 00:36:15;;;;;;;12.32;5.22;;;20.70;35.20;;;;;;4995185;28;20105;-57
2022/03/01 00:38:40;;;;;;;5.70;4.72;;;20.70;35.20;;;;;;4992740;28;20128;-57
2022/03/01 00:41:06;;;;;;;7.50;4.78;;;20.70;35.20;;;;;;4997843;28;20133;-58
2022/03/01 00:43:31;;;;;;;4.90;4.50;;;20.60;35.10;;;;;;4994646;28;20046;-57
2022/03/01 00:45:57;;;;;;;8.15;5.10;;;20.60;35.20;;;;;;4996674;28;20464;-57
2022/03/01 00:48:23;;;;;;;5.15;4.57;;;20.60;35.20;;;;;;4995995;28;20074;-57
2022/03/01 00:50:48;;;;;;;4.80;4.40;;;20.60;35.20;;;;;;4992933;28;20054;-57
2022/03/01 00:53:14;;;;;;;5.47;4.97;;;20.60;35.20;;;;;;4995848;28;20054;-57
2022/03/01 00:55:40;;;;;;;5.55;5.00;;;20.60;35.20;;;;;;4995978;28;20051;-57
2022/03/01 00:58:06;;;;;;;6.47;4.97;;;20.60;35.20;;;;;;4995635;28;20049;-58
2022/03/01 01:00:32;;;;;;;5.78;5.15;;;20.60;35.30;;;;;;4996947;28;20076;-57
2022/03/01 01:02:58;;;;;;;7.18;4.93;;;20.60;35.30;;;;;;4993907;28;20454;-58
2022/03/01 01:05:24;;;;;;;4.80;4.30;;;20.60;35.40;;;;;;4991028;28;20072;-59
2022/03/01 01:07:50;;;;;;;4.80;4.40;;;20.50;35.30;;;;;;4993076;28;20050;-60
2022/03/01 01:10:17;;;;;;;5.30;4.60;;;20.50;35.30;;;;;;4996075;28;20112;-58
2022/03/01 01:12:43;;;;;;;9.80;4.85;;;20.50;35.30;;;;;;4992623;28;20853;-57
2022/03/01 01:15:10;;;;;;;5.40;4.90;;;20.50;35.30;;;;;;4995278;28;20529;-58
2022/03/01 01:17:36;;;;;;;6.13;5.03;;;20.50;35.30;;;;;;4994084;28;20089;-57
2022/03/01 01:20:07;;;;;;;5.13;4.63;;;20.40;35.30;;;;;;4993095;28;20070;-60
2022/03/01 01:22:39;;;;;;;6.55;4.80;;;20.50;35.40;;;;;;4994517;28;20391;-57
2022/03/01 01:25:22;;;;;;;6.15;5.15;;;20.40;35.40;;;;;;4993952;28;20065;-58
2022/03/01 01:27:51;;;;;;;5.28;4.78;;;20.40;35.40;;;;;;5009303;28;20770;-57
2022/03/01 01:30:19;;;;;;;5.32;4.82;;;20.40;35.40;;;;;;4993657;28;20124;-57
2022/03/01 01:32:48;;;;;;;6.57;5.20;;;20.40;35.40;;;;;;4992549;28;20588;-57
2022/03/01 01:35:15;;;;;;;4.97;4.47;;;20.40;35.30;;;;;;4995841;28;20521;-59
2022/03/01 01:37:42;;;;;;;5.20;4.78;;;20.40;35.30;;;;;;4993787;28;20105;-57
2022/03/01 01:40:11;;;;;;;5.32;4.82;;;20.40;35.40;;;;;;4994902;28;20145;-58
2022/03/01 01:42:37;;;;;;;4.93;4.35;;;20.40;35.40;;;;;;4996592;28;20137;-58
2022/03/01 01:45:03;;;;;;;5.38;4.88;;;20.30;35.40;;;;;;4992228;28;20544;-58
2022/03/01 01:47:29;;;;;;;4.78;4.38;;;20.30;35.30;;;;;;4991618;28;20051;-57
2022/03/01 01:49:54;;;;;;;4.90;4.40;;;20.30;35.30;;;;;;4993293;28;20053;-57
2022/03/01 01:52:20;;;;;;;5.47;4.88;;;20.30;35.30;;;;;;4993721;28;20473;-58
2022/03/01 01:54:46;;;;;;;5.47;4.80;;;20.30;35.30;;;;;;4993508;28;20164;-57
2022/03/01 01:57:17;;;;;;;5.00;4.50;;;20.30;35.30;;;;;;4994367;28;20050;-58
2022/03/01 01:59:43;;;;;;;4.90;4.45;;;20.30;35.30;;;;;;4993262;28;20050;-57
2022/03/01 02:02:13;;;;;;;5.07;4.68;;;20.20;35.20;;;;;;4990893;28;20058;-56
2022/03/01 02:04:40;;;;;;;4.97;4.47;;;20.20;35.20;;;;;;4991798;28;20746;-57
2022/03/01 02:07:05;;;;;;;5.25;4.75;;;20.20;35.20;;;;;;4993149;28;20044;-58
2022/03/01 02:09:31;;;;;;;5.40;4.65;;;20.20;35.30;;;;;;4993049;28;20069;-57
2022/03/01 02:11:56;;;;;;;4.95;4.50;;;20.20;35.20;;;;;;4991860;28;20046;-58
2022/03/01 02:14:22;;;;;;;4.70;4.30;;;20.20;36.00;;;;;;4992534;28;20051;-57
2022/03/01 02:16:48;;;;;;;5.45;4.55;;;20.20;35.20;;;;;;4990800;28;20038;-58
2022/03/01 02:19:14;;;;;;;5.38;4.60;;;20.20;35.20;;;;;;5009639;28;20046;-59
2022/03/01 02:21:57;;;;;;;4.70;4.30;;;20.20;35.20;;;;;;4995112;28;20073;-59
2022/03/01 02:24:25;;;;;;;5.00;4.60;;;20.20;35.20;;;;;;4992763;28;20553;-58
2022/03/01 02:26:59;;;;;;;4.97;4.57;;;20.20;35.30;;;;;;4989806;28;20509;-58
2022/03/01 02:29:25;;;;;;;4.93;4.53;;;20.10;35.10;;;;;;4992559;28;20057;-57
2022/03/01 02:31:52;;;;;;;4.50;4.20;;;20.10;35.20;;;;;;4992147;28;20131;-57
2022/03/01 02:34:18;;;;;;;5.45;4.95;;;20.10;35.20;;;;;;4996751;28;20077;-57
2022/03/01 02:36:44;;;;;;;5.72;5.22;;;20.10;35.10;;;;;;4998030;28;20050;-57
2022/03/01 02:39:11;;;;;;;5.55;5.05;;;20.10;35.20;;;;;;4994169;28;20175;-60
2022/03/01 02:41:38;;;;;;;5.18;4.68;;;20.10;35.10;;;;;;4992101;28;20042;-59
2022/03/01 02:44:04;;;;;;;5.35;4.82;;;20.10;35.10;;;;;;4990738;28;20073;-57
2022/03/01 02:46:30;;;;;;;6.00;5.50;;;20.00;35.10;;;;;;4992477;28;20058;-58
2022/03/01 02:48:56;;;;;;;5.47;4.90;;;20.00;35.10;;;;;;5008533;28;20505;-59
2022/03/01 02:51:21;;;;;;;5.82;5.28;;;20.00;35.10;;;;;;4993151;28;20108;-57
2022/03/01 02:53:47;;;;;;;4.95;4.47;;;20.00;35.10;;;;;;4995869;28;20072;-58
2022/03/01 02:56:13;;;;;;;5.70;5.20;;;20.00;35.10;;;;;;4992321;28;20050;-58
2022/03/01 02:58:38;;;;;;;5.47;4.90;;;20.00;35.00;;;;;;4991627;28;20136;-57
2022/03/01 03:01:04;;;;;;;5.35;4.85;;;20.00;35.00;;;;;;4988836;28;20681;-57
2022/03/01 03:03:29;;;;;;;4.60;4.20;;;20.00;35.00;;;;;;4990933;28;20129;-58
2022/03/01 03:05:55;;;;;;;5.50;5.00;;;20.00;35.00;;;;;;4991628;28;20783;-58
2022/03/01 03:08:20;;;;;;;5.38;4.88;;;20.00;35.00;;;;;;4992327;28;20054;-58
2022/03/01 03:10:46;;;;;;;5.10;4.53;;;20.00;35.00;;;;;;4992779;28;20042;-59
2022/03/01 03:13:12;;;;;;;5.55;5.05;;;19.90;35.00;;;;;;4989895;28;20049;-57
2022/03/01 03:15:37;;;;;;;5.38;4.88;;;20.00;35.00;;;;;;4994785;28;20054;-59
2022/03/01 03:18:04;;;;;;;5.18;4.78;;;20.00;35.00;;;;;;4991967;28;20153;-57
2022/03/01 03:20:29;;;;;;;5.20;4.80;;;19.90;35.00;;;;;;4991259;28;20057;-58
2022/03/01 03:22:55;;;;;;;5.30;4.90;;;19.90;35.00;;;;;;4993130;28;20046;-57
2022/03/01 03:25:20;;;;;;;4.57;4.18;;;19.90;35.00;;;;;;4987383;28;20951;-60
2022/03/01 03:27:46;;;;;;;5.93;5.22;;;19.90;35.00;;;;;;4991183;28;20049;-56
2022/03/01 03:30:12;;;;;;;5.10;4.50;;;19.90;35.00;;;;;;4992842;28;20074;-57
2022/03/01 03:32:37;;;;;;;5.03;4.63;;;19.90;35.00;;;;;;4991000;28;20085;-58
2022/03/01 03:35:04;;;;;;;5.70;5.07;;;19.90;34.90;;;;;;4992608;28;20231;-57
2022/03/01 03:37:31;;;;;;;5.03;4.53;;;19.80;34.90;;;;;;4994141;28;20042;-58
2022/03/01 03:39:56;;;;;;;5.05;4.55;;;19.80;34.90;;;;;;4991018;28;20045;-58
2022/03/01 03:42:22;;;;;;;4.80;4.40;;;19.80;34.90;;;;;;4992640;28;20089;-57
2022/03/01 03:44:48;;;;;;;5.28;4.88;;;19.80;34.80;;;;;;4991589;28;20046;-56
2022/03/01 03:47:14;;;;;;;5.80;5.20;;;19.80;34.90;;;;;;4994751;28;20065;-57
2022/03/01 03:49:39;;;;;;;5.38;4.90;;;19.80;34.80;;;;;;4992236;28;20038;-58
2022/03/01 03:52:06;;;;;;;5.35;4.85;;;19.80;34.80;;;;;;4996744;28;20057;-57
2022/03/01 03:54:32;;;;;;;4.78;4.30;;;19.80;34.80;;;;;;4989421;28;20045;-57
2022/03/01 03:56:58;;;;;;;5.13;4.68;;;19.80;34.80;;;;;;4995936;28;20374;-57
2022/03/01 03:59:23;;;;;;;5.15;4.70;;;19.80;34.80;;;;;;4990857;28;20050;-56
2022/03/01 04:01:49;;;;;;;5.18;4.68;;;19.80;34.80;;;;;;4992309;28;20053;-57
2022/03/01 04:04:15;;;;;;;5.68;5.18;;;19.70;34.80;;;;;;4991549;28;20061;-57
2022/03/01 04:06:40;;;;;;;5.10;4.60;;;19.70;34.70;;;;;;4992107;28;20061;-56
2022/03/01 04:09:06;;;;;;;5.38;4.88;;;19.70;34.70;;;;;;4988711;28;20037;-57
2022/03/01 04:11:33;;;;;;;5.57;5.07;;;19.70;34.80;;;;;;4994325;28;20712;-57
2022/03/01 04:13:59;;;;;;;5.65;5.15;;;19.70;34.70;;;;;;4992345;28;21037;-57
2022/03/01 04:16:27;;;;;;;5.50;5.00;;;19.70;34.70;;;;;;4992291;28;20058;-58
2022/03/01 04:18:53;;;;;;;5.78;4.90;;;19.70;34.70;;;;;;4989891;28;20728;-57
2022/03/01 04:21:19;;;;;;;4.28;3.97;;;19.70;34.70;;;;;;4992457;28;20094;-59
2022/03/01 04:23:44;;;;;;;5.00;4.50;;;19.70;34.70;;;;;;4989171;28;20548;-58
2022/03/01 04:26:11;;;;;;;5.85;4.95;;;19.70;34.70;;;;;;4991862;28;20056;-58
2022/03/01 04:28:36;;;;;;;4.68;4.32;;;19.70;34.70;;;;;;4992141;28;20543;-57
2022/03/01 04:31:02;;;;;;;5.20;4.70;;;19.70;34.70;;;;;;4991423;28;20104;-58
2022/03/01 04:33:28;;;;;;;5.53;5.03;;;19.70;34.70;;;;;;4992456;28;20054;-57
2022/03/01 04:35:54;;;;;;;5.18;4.68;;;19.70;34.70;;;;;;4988929;28;20046;-58
2022/03/01 04:38:20;;;;;;;5.75;5.15;;;19.60;34.60;;;;;;4990500;28;20104;-57
2022/03/01 04:40:46;;;;;;;6.13;4.70;;;19.60;34.60;;;;;;4990649;28;20046;-57
2022/03/01 04:43:12;;;;;;;5.53;4.68;;;19.60;34.60;;;;;;4989819;28;20066;-58
2022/03/01 04:45:38;;;;;;;5.13;4.72;;;19.60;34.60;;;;;;4991308;28;20046;-56
2022/03/01 04:48:04;;;;;;;5.20;4.75;;;19.60;34.60;;;;;;4992558;28;20065;-57
2022/03/01 04:50:30;;;;;;;5.10;4.68;;;19.60;34.70;;;;;;4990990;28;20545;-57
2022/03/01 04:52:56;;;;;;;4.90;4.50;;;19.60;34.60;;;;;;4991908;28;20042;-58
2022/03/01 04:55:22;;;;;;;5.30;4.80;;;19.60;34.60;;;;;;4992449;28;20050;-57
2022/03/01 04:57:48;;;;;;;5.00;4.60;;;19.60;34.60;;;;;;4989510;28;20050;-57
2022/03/01 05:00:14;;;;;;;4.88;4.40;;;19.60;34.60;;;;;;4991256;28;20050;-59
2022/03/01 05:02:41;;;;;;;5.57;5.07;;;19.60;34.70;;;;;;4986748;28;20405;-58
2022/03/01 05:05:10;;;;;;;4.78;4.38;;;19.60;34.60;;;;;;4988608;28;20121;-57
2022/03/01 05:07:38;;;;;;;5.85;4.60;;;19.60;34.60;;;;;;4994228;28;20108;-57
2022/03/01 05:10:04;;;;;;;5.20;4.70;;;19.60;34.60;;;;;;4997961;28;20046;-56
2022/03/01 05:12:30;;;;;;;5.07;4.50;;;19.60;34.60;;;;;;4994562;28;20045;-57
2022/03/01 05:14:55;;;;;;;5.22;4.53;;;19.60;34.60;;;;;;4994467;28;20837;-57
2022/03/01 05:17:21;;;;;;;8.52;4.63;;;19.60;34.60;;;;;;4995581;28;20084;-57
2022/03/01 05:19:46;;;;;;;6.20;4.40;;;19.50;34.50;;;;;;4990248;28;20046;-58
2022/03/01 05:22:12;;;;;;;5.45;4.93;;;19.60;34.60;;;;;;4994159;28;20062;-57
2022/03/01 05:24:38;;;;;;;4.78;4.38;;;19.60;34.60;;;;;;4994184;28;20057;-57
2022/03/01 05:27:03;;;;;;;5.18;4.60;;;19.60;34.60;;;;;;4995930;28;20052;-57
2022/03/01 05:29:29;;;;;;;5.63;4.88;;;19.60;35.30;;;;;;4995138;28;20143;-60
2022/03/01 05:31:54;;;;;;;6.82;5.53;;;19.60;34.60;;;;;;4995017;28;20045;-58
2022/03/01 05:34:20;;;;;;;5.63;4.97;;;19.60;34.50;;;;;;4994634;28;20050;-57
2022/03/01 05:36:45;;;;;;;10.50;4.57;;;19.60;34.50;;;;;;4996384;28;20394;-58
2022/03/01 05:39:11;;;;;;;5.68;4.88;;;19.60;34.50;;;;;;4994510;28;20882;-57
2022/03/01 05:41:37;;;;;;;6.78;4.57;;;19.60;34.60;;;;;;5011258;28;20093;-56
2022/03/01 05:44:02;;;;;;;6.18;4.85;;;19.60;34.50;;;;;;4995243;28;20097;-57
2022/03/01 05:46:28;;;;;;;6.05;5.00;;;19.60;34.50;;;;;;4991365;28;20054;-57
2022/03/01 05:48:53;;;;;;;5.75;4.63;;;19.60;34.50;;;;;;4993136;28;20053;-57
2022/03/01 05:51:19;;;;;;;8.10;4.80;;;19.60;34.60;;;;;;4995481;28;20449;-57
2022/03/01 05:53:45;;;;;;;5.68;4.45;;;19.60;34.50;;;;;;4997577;28;20405;-57
2022/03/01 05:56:11;;;;;;;8.27;4.63;;;19.70;34.60;;;;;;4992720;28;20485;-57
2022/03/01 05:58:36;;;;;;;6.38;4.20;;;19.70;34.70;;;;;;4995275;28;20049;-57
2022/03/01 06:01:02;;;;;;;5.20;4.35;;;19.70;34.80;;;;;;4990974;28;20049;-56
2022/03/01 06:03:27;;;;;;;7.32;4.38;;;19.70;34.90;;;;;;4993142;28;20045;-57
2022/03/01 06:05:53;;;;;;;5.50;4.55;;;19.70;35.00;;;;;;4992865;28;20041;-58
2022/03/01 06:08:19;;;;;;;5.85;4.28;;;19.80;35.00;;;;;;4994497;28;20056;-58
2022/03/01 06:10:44;;;;;;;5.85;4.05;;;19.80;35.10;;;;;;4997113;28;20046;-60
2022/03/01 06:13:10;;;;;;;6.03;4.57;;;19.80;35.00;;;;;;4993939;28;20078;-57
2022/03/01 06:15:35;;;;;;;5.25;4.40;;;19.80;35.00;;;;;;4991240;28;20042;-56
2022/03/01 06:18:01;;;;;;;4.43;3.80;;;19.80;34.90;;;;;;4991821;28;20046;-58
2022/03/01 06:20:27;;;;;;;6.03;4.40;;;19.80;34.90;;;;;;4984290;28;20163;-56
2022/03/01 06:22:52;;;;;;;4.40;4.00;;;19.80;34.90;;;;;;4992870;28;20435;-58
2022/03/01 06:25:18;;;;;;;4.30;3.90;;;19.80;34.80;;;;;;4993462;28;20543;-58
2022/03/01 06:27:44;;;;;;;4.75;4.20;;;19.80;34.90;;;;;;4999628;28;20046;-57
2022/03/01 06:30:10;;;;;;;5.28;4.60;;;19.90;34.90;;;;;;4990583;28;20335;-57
2022/03/01 06:32:36;;;;;;;9.50;4.43;;;19.90;34.90;;;;;;4994592;28;20580;-57
2022/03/01 06:35:02;;;;;;;5.93;4.20;;;19.90;34.90;;;;;;4994559;28;20077;-57
2022/03/01 06:37:28;;;;;;;5.90;4.80;;;19.90;35.00;;;;;;4996725;28;20810;-57
2022/03/01 06:39:53;;;;;;;4.72;4.10;;;19.90;35.00;;;;;;4997228;28;20050;-57
2022/03/01 06:42:19;;;;;;;5.75;4.65;;;19.90;35.10;;;;;;4989042;28;20080;-57
2022/03/01 06:44:45;;;;;;;5.50;4.13;;;19.90;35.30;;;;;;5006393;28;20169;-58
2022/03/01 06:47:10;;;;;;;5.68;4.45;;;20.00;35.30;;;;;;4994670;28;20521;-57
2022/03/01 06:49:36;;;;;;;5.97;4.65;;;19.90;35.30;;;;;;4995534;28;20057;-57
2022/03/01 06:52:04;;;;;;;5.70;4.78;;;20.00;35.40;;;;;;4994830;28;20057;-58
2022/03/01 06:54:30;;;;;;;5.75;4.72;;;20.00;35.40;;;;;;4994929;28;20042;-56
2022/03/01 06:56:56;;;;;;;5.18;4.68;;;20.00;35.50;;;;;;4991162;28;20049;-57
2022/03/01 06:59:24;;;;;;;4.57;4.18;;;20.00;36.30;;;;;;4994028;28;20038;-60
2022/03/01 07:01:50;;;;;;;4.90;4.40;;;20.00;35.50;;;;;;4990477;28;20058;-57
2022/03/01 07:04:15;;;;;;;5.05;4.45;;;20.10;35.60;;;;;;4974205;28;20050;-57
2022/03/01 07:06:41;;;;;;;4.57;4.18;;;20.10;35.60;;;;;;4989540;28;20074;-57
2022/03/01 07:09:06;;;;;;;5.00;4.50;;;20.10;35.70;;;;;;4993198;28;20131;-56
2022/03/01 07:11:32;;;;;;;5.00;4.55;;;20.10;35.70;;;;;;4990860;28;20057;-57
2022/03/01 07:13:58;;;;;;;4.88;4.38;;;20.10;35.70;;;;;;4994179;28;20042;-58
2022/03/01 07:16:23;;;;;;;5.97;4.18;;;20.10;35.70;;;;;;4991298;28;20046;-56
2022/03/01 07:18:49;;;;;;;4.55;4.13;;;20.10;35.70;;;;;;4991690;28;20046;-57
2022/03/01 07:21:14;;;;;;;5.30;4.80;;;20.10;35.60;;;;;;4993491;28;20046;-56
2022/03/01 07:23:40;;;;;;;5.00;4.50;;;20.10;35.70;;;;;;4991155;28;20504;-57
2022/03/01 07:26:07;;;;;;;7.05;4.97;;;20.10;35.70;;;;;;4986560;28;20120;-57
2022/03/01 07:28:32;;;;;;;5.65;4.38;;;20.20;35.70;;;;;;4992483;28;20129;-56
2022/03/01 07:30:58;;;;;;;5.05;4.55;;;20.20;35.70;;;;;;4991226;28;20117;-57
2022/03/01 07:33:24;;;;;;;4.90;4.50;;;20.20;35.70;;;;;;4992946;28;20453;-57
2022/03/01 07:35:50;;;;;;;5.32;4.82;;;20.20;35.70;;;;;;4994402;28;20434;-59
2022/03/01 07:38:15;;;;;;;5.18;4.72;;;20.20;35.70;;;;;;4992871;28;20056;-59
2022/03/01 07:40:41;;;;;;;4.90;4.50;;;20.20;35.70;;;;;;4995347;28;20057;-57
2022/03/01 07:43:07;;;;;;;5.80;4.68;;;20.20;35.70;;;;;;4993358;28;20077;-58
2022/03/01 07:45:34;;;;;;;4.93;4.30;;;20.20;35.70;;;;;;4994272;28;20072;-58
2022/03/01 07:48:02;;;;;;;6.03;4.45;;;20.20;35.70;;;;;;4990209;28;20410;-57
2022/03/01 07:50:29;;;;;;;5.90;4.88;;;20.20;35.70;;;;;;4994182;28;20225;-57
2022/03/01 07:52:55;;;;;;;5.45;4.78;;;20.30;35.80;;;;;;4986650;28;20181;-57
2022/03/01 07:55:21;;;;;;;7.25;4.32;;;20.30;35.90;;;;;;4991604;28;21601;-57
2022/03/01 07:57:47;;;;;;;4.85;4.35;;;20.30;36.00;;;;;;4990272;28;20050;-58
2022/03/01 08:00:13;;;;;;;5.35;4.30;;;20.30;36.00;;;;;;4990054;28;20057;-58
2022/03/01 08:02:40;;;;;;;6.47;4.45;;;20.30;36.10;;;;;;4991081;28;20045;-59
2022/03/01 08:05:07;;;;;;;7.13;4.95;;;20.30;36.20;;;;;;4990432;28;20058;-59
2022/03/01 08:07:33;;;;;;;5.88;4.60;;;20.30;36.40;;;;;;4987958;28;20045;-57
2022/03/01 08:09:59;;;;;;;5.65;5.00;;;20.30;36.40;;;;;;4990579;28;20093;-57
2022/03/01 08:12:24;;;;;;;6.47;5.22;;;20.30;37.10;;;;;;4992688;28;20100;-57
2022/03/01 08:14:50;;;;;;;7.13;5.30;;;20.30;36.50;;;;;;4990054;28;20048;-60
2022/03/01 08:17:17;;;;;;;6.88;4.88;;;20.30;36.60;;;;;;4990927;28;20045;-59
2022/03/01 08:19:42;;;;;;;5.20;4.30;;;20.30;36.60;;;;;;4991882;28;20045;-57
2022/03/01 08:22:09;;;;;;;5.30;4.80;;;20.30;36.70;;;;;;4990874;28;20054;-58
2022/03/01 08:24:35;;;;;;;6.85;4.82;;;20.40;36.70;;;;;;4992763;28;20092;-57
2022/03/01 08:27:00;;;;;;;5.18;4.50;;;20.30;36.60;;;;;;4991464;28;21733;-59
2022/03/01 08:29:28;;;;;;;6.70;4.75;;;20.40;36.70;;;;;;4992784;28;20084;-57
2022/03/01 08:31:54;;;;;;;8.82;4.72;;;20.40;36.70;;;;;;4989548;28;20117;-57
2022/03/01 08:34:19;;;;;;;6.40;4.85;;;20.40;36.70;;;;;;4996038;28;20054;-59
2022/03/01 08:36:45;;;;;;;5.43;4.35;;;20.40;36.70;;;;;;4986036;28;20050;-57
2022/03/01 08:39:10;;;;;;;5.30;4.75;;;20.40;36.80;;;;;;4992847;28;20038;-58
2022/03/01 08:41:36;;;;;;;5.68;4.65;;;20.40;37.50;;;;;;4993430;28;20372;-58
2022/03/01 08:44:02;;;;;;;6.22;4.80;;;20.40;36.80;;;;;;4993227;28;20054;-58
2022/03/01 08:46:28;;;;;;;5.25;4.75;;;20.40;36.80;;;;;;5007059;28;20077;-58
2022/03/01 08:48:55;;;;;;;5.95;5.03;;;20.40;36.80;;;;;;4992982;28;20185;-57
2022/03/01 08:51:21;;;;;;;4.70;4.30;;;20.40;36.80;;;;;;4996379;28;20045;-57
2022/03/01 08:53:50;;;;;;;5.93;4.50;;;20.50;36.90;;;;;;4991029;28;21758;-58
2022/03/01 08:56:16;;;;;;;5.88;4.70;;;20.40;36.90;;;;;;4988293;28;20042;-59
2022/03/01 08:58:45;;;;;;;5.18;4.68;;;20.40;37.00;;;;;;4992817;28;20038;-60
2022/03/01 09:01:12;;;;;;;6.00;4.78;;;20.40;37.00;;;;;;4991733;28;20042;-58
2022/03/01 09:03:38;;;;;;;5.68;4.90;;;20.50;37.20;;;;;;4990882;28;20046;-57
2022/03/01 09:06:05;;;;;;;5.78;4.90;;;20.50;37.20;;;;;;4994249;28;20140;-57
2022/03/01 09:08:40;;;;;;;5.22;4.47;;;20.50;37.40;;;;;;4992777;28;20054;-58
2022/03/01 09:11:06;;;;;;;5.78;4.88;;;20.50;37.40;;;;;;4994466;28;20821;-58
2022/03/01 09:13:31;;;;;;;5.55;4.75;;;20.50;37.40;;;;;;4993313;28;20046;-57
2022/03/01 09:15:57;;;;;;;4.72;4.32;;;20.60;37.50;;;;;;4990105;28;20042;-59
2022/03/01 09:18:23;;;;;;;5.78;4.80;;;20.60;37.60;;;;;;4990458;28;20562;-57
2022/03/01 09:20:49;;;;;;;6.47;4.35;;;20.60;37.60;;;;;;4993962;28;20161;-57
2022/03/01 09:23:15;;;;;;;4.97;4.47;;;20.60;37.60;;;;;;5004408;28;20050;-57
2022/03/01 09:25:41;;;;;;;5.05;4.55;;;20.60;37.60;;;;;;4993737;28;20080;-57
2022/03/01 09:28:06;;;;;;;4.90;4.45;;;20.60;37.70;;;;;;4990815;28;20463;-59
2022/03/01 09:30:32;;;;;;;5.03;4.53;;;20.60;37.70;;;;;;4993897;28;20041;-59
2022/03/01 09:32:58;;;;;;;5.28;4.78;;;20.70;37.80;;;;;;4988899;28;20046;-59
2022/03/01 09:35:24;;;;;;;12.23;5.10;;;20.70;37.80;;;;;;4995712;28;20120;-58
2022/03/01 09:37:50;;;;;;;6.88;4.90;;;20.70;37.90;;;;;;4993069;28;20050;-57
2022/03/01 09:40:16;;;;;;;5.97;4.65;;;20.70;37.90;;;;;;4994941;28;20145;-57
2022/03/01 09:42:42;;;;;;;5.32;4.53;;;20.70;37.90;;;;;;4992092;28;20049;-58
2022/03/01 09:45:13;;;;;;;5.10;4.60;;;20.70;38.00;;;;;;4992340;28;20061;-58
2022/03/01 09:47:39;;;;;;;5.30;4.68;;;20.80;38.00;;;;;;5007985;28;20062;-59
2022/03/01 09:50:07;;;;;;;5.18;4.68;;;20.80;38.10;;;;;;4993614;28;20072;-58
2022/03/01 09:52:33;;;;;;;5.22;4.78;;;20.80;38.20;;;;;;4991295;28;20104;-57
2022/03/01 09:54:59;;;;;;;5.47;4.97;;;20.80;38.10;;;;;;5011199;28;20533;-57
2022/03/01 09:57:24;;;;;;;7.63;4.55;;;20.80;38.20;;;;;;4996216;28;20037;-58
2022/03/01 09:59:50;;;;;;;5.97;4.60;;;20.80;38.20;;;;;;4989725;28;20064;-59
2022/03/01 10:02:16;;;;;;;5.63;4.70;;;20.80;38.20;;;;;;4991619;28;20046;-58
2022/03/01 10:04:53;;;;;;;5.05;4.47;;;20.80;38.20;;;;;;4996626;28;20041;-57
2022/03/01 10:07:26;;;;;;;4.60;4.20;;;20.80;38.10;;;;;;4995007;28;20517;-58
2022/03/01 10:09:52;;;;;;;6.32;4.75;;;20.80;38.00;;;;;;4994320;28;20050;-58
2022/03/01 10:12:26;;;;;;;5.82;4.50;;;20.90;38.10;;;;;;4995138;28;20046;-58
2022/03/01 10:15:02;;;;;;;5.47;4.95;;;20.90;38.00;;;;;;4994432;28;20520;-57
2022/03/01 10:17:43;;;;;;;5.82;4.70;;;20.90;37.90;;;;;;4994150;28;20054;-57
2022/03/01 10:20:11;;;;;;;5.00;4.50;;;20.80;37.80;;;;;;4993200;28;20058;-59
2022/03/01 10:22:48;;;;;;;5.50;4.90;;;20.80;37.70;;;;;;4996321;28;20592;-60
2022/03/01 10:25:16;;;;;;;5.10;4.60;;;20.80;37.60;;;;;;4994093;28;20056;-57
2022/03/01 10:27:50;;;;;;;4.75;4.10;;;20.80;37.60;;;;;;4991304;28;20683;-57
2022/03/01 10:30:31;;;;;;;5.05;4.55;;;20.80;37.50;;;;;;4993760;28;20042;-57
2022/03/01 10:33:09;;;;;;;5.20;4.70;;;20.90;37.50;;;;;;4993277;28;20165;-57
2022/03/01 10:35:37;;;;;;;5.18;4.68;;;20.90;37.40;;;;;;4994276;28;20112;-57
2022/03/01 10:38:04;;;;;;;4.57;4.15;;;20.80;37.30;;;;;;4993180;28;20065;-57
2022/03/01 10:40:30;;;;;;;6.38;4.72;;;20.90;37.30;;;;;;4994295;28;20052;-56
2022/03/01 10:43:10;;;;;;;7.63;4.90;;;20.90;37.20;;;;;;4991414;28;20125;-55
2022/03/01 10:45:39;;;;;;;5.33;4.77;;;20.90;37.00;;;;;;4991984;28;20068;-56
2022/03/01 10:48:06;;;;;;;5.50;5.00;;;20.90;37.00;;;;;;4997043;28;20055;-56
2022/03/01 10:50:32;;;;;;;5.00;4.43;;;20.90;37.00;;;;;;4991465;28;20045;-57
2022/03/01 10:52:59;;;;;;;5.35;4.85;;;20.90;37.00;;;;;;4990513;28;20143;-57
2022/03/01 10:55:28;;;;;;;4.80;4.00;;;20.90;36.90;;;;;;4990865;28;20081;-57
2022/03/01 10:58:12;;;;;;;4.25;3.88;;;20.90;36.80;;;;;;4992192;28;20050;-57
2022/03/01 11:00:38;;;;;;;4.53;4.05;;;20.90;36.80;;;;;;4995917;28;20037;-56
2022/03/01 11:03:05;;;;;;;5.20;4.63;;;20.90;36.80;;;;;;4992834;28;20425;-57
2022/03/01 11:05:32;;;;;;;4.75;4.28;;;20.90;36.80;;;;;;4993168;28;20061;-57
2022/03/01 11:08:04;;;;;;;4.60;4.20;;;20.90;36.70;;;;;;4991416;28;20125;-58
2022/03/01 11:10:33;;;;;;;4.50;4.10;;;20.90;36.70;;;;;;5008972;28;20060;-57
2022/03/01 11:13:01;;;;;;;4.47;3.80;;;20.90;36.70;;;;;;4991353;28;20136;-59
2022/03/01 11:15:59;;;;;;;8.65;4.38;;;20.90;36.80;;;;;;4993247;28;20155;-55
2022/03/01 11:18:48;;;;;;;4.50;4.10;;;21.00;36.80;;;;;;4963735;28;20046;-58
2022/03/01 11:21:15;;;;;;;5.15;4.50;;;21.00;36.80;;;;;;5005157;28;20065;-58
2022/03/01 11:23:42;;;;;;;4.90;4.30;;;20.90;36.80;;;;;;4988190;28;20142;-57
2022/03/01 11:26:13;;;;;;;4.57;4.18;;;20.90;36.90;;;;;;4988402;28;20434;-56
2022/03/01 11:28:42;;;;;;;4.80;4.30;;;21.00;36.80;;;;;;4991434;28;20053;-56
2022/03/01 11:31:22;;;;;;;6.90;4.38;;;20.90;36.80;;;;;;4991058;28;20494;-59
2022/03/01 11:34:00;;;;;;;4.07;3.78;;;21.00;36.70;;;;;;4989950;28;20045;-58
2022/03/01 11:36:29;;;;;;;4.70;4.30;;;21.00;36.80;;;;;;5007415;28;20190;-57
2022/03/01 11:39:10;;;;;;;4.88;4.38;;;21.00;36.70;;;;;;4988128;28;20057;-57
2022/03/01 11:41:47;;;;;;;5.03;4.53;;;21.00;36.80;;;;;;4989214;28;20092;-57
2022/03/01 11:44:19;;;;;;;4.28;3.88;;;21.00;36.80;;;;;;4992017;28;20045;-57
2022/03/01 11:46:45;;;;;;;5.07;4.57;;;21.00;36.70;;;;;;4989397;28;20046;-58
2022/03/01 11:49:12;;;;;;;6.60;4.13;;;21.00;36.60;;;;;;4990003;28;20047;-56
2022/03/01 11:51:44;;;;;;;4.55;3.97;;;21.00;36.70;;;;;;4990948;28;20049;-56
2022/03/01 11:54:12;;;;;;;6.70;4.40;;;21.00;36.70;;;;;;4990333;28;20072;-57
2022/03/01 11:56:40;;;;;;;5.00;4.50;;;21.00;36.80;;;;;;4993252;28;20057;-56
2022/03/01 11:59:09;;;;;;;5.00;4.13;;;21.00;36.80;;;;;;4991386;28;20508;-56
2022/03/01 12:01:36;;;;;;;4.70;4.30;;;21.00;36.90;;;;;;4992335;28;20070;-59
2022/03/01 12:04:04;;;;;;;5.05;4.55;;;21.00;37.00;;;;;;4992454;28;20742;-57
2022/03/01 12:06:32;;;;;;;4.97;4.45;;;21.00;37.00;;;;;;4989985;28;20049;-57
2022/03/01 12:09:05;;;;;;;4.65;4.13;;;21.00;37.10;;;;;;4988106;28;20057;-58
2022/03/01 12:11:35;;;;;;;4.90;4.18;;;21.00;37.20;;;;;;4992705;28;20041;-59
2022/03/01 12:14:07;;;;;;;4.50;4.10;;;21.00;37.20;;;;;;4994825;28;20050;-58
2022/03/01 12:16:33;;;;;;;4.50;4.10;;;21.00;37.30;;;;;;4996072;28;20129;-57
2022/03/01 12:19:15;;;;;;;4.45;4.05;;;21.00;37.30;;;;;;4996851;28;20053;-58
2022/03/01 12:21:50;;;;;;;4.95;4.15;;;21.00;37.30;;;;;;4992447;28;20082;-55
2022/03/01 12:24:18;;;;;;;4.72;4.10;;;21.00;37.30;;;;;;4994027;28;20042;-58
2022/03/01 12:26:57;;;;;;;4.32;3.95;;;21.00;37.40;;;;;;4995955;28;20054;-57
2022/03/01 12:29:26;;;;;;;4.15;3.85;;;21.00;37.50;;;;;;4995733;28;20045;-57
2022/03/01 12:32:03;;;;;;;4.85;4.38;;;21.00;37.40;;;;;;4996078;28;20060;-56
2022/03/01 12:34:30;;;;;;;5.28;4.40;;;21.00;37.30;;;;;;4992740;28;20053;-57
2022/03/01 12:36:58;;;;;;;4.60;4.18;;;21.00;37.50;;;;;;4994640;28;20078;-57
2022/03/01 12:39:27;;;;;;;4.55;4.15;;;21.00;37.20;;;;;;4995057;28;20038;-58
2022/03/01 12:41:53;;;;;;;4.25;3.78;;;21.00;37.20;;;;;;4993504;28;20077;-58
2022/03/01 12:44:21;;;;;;;4.78;4.35;;;21.10;37.30;;;;;;4996762;28;20100;-58
2022/03/01 12:46:48;;;;;;;4.82;4.32;;;21.00;37.10;;;;;;4995627;28;20099;-58